Cliffland, Iowa
Current Conditions -  °F | °C
As of 5:53 AM on Friday 24 Oct 2014 (Local Time) from KOTM Reporting Station
Moderate Fog Moderate Fog  
Wind Chill: 11°   Ceiling: 200
Heat Index: 11°   Visibility: 0.25mi
Dew Point: 11°   Wind: 3mph
Humidity: 100%   Direction: 190°S
Pressure: 30.04"   Gusts: NA
Location:  41.0803°N, 92.3054°W
Report Text: KOTM 241053Z AUTO 19003KT 1/4SM FG VV002 11/11 A3004 RMK AO2 SLP172 T01110111
Loading
Personal Weather Stations






























Interactive Weather Map
Tropical Storm Tracking
New forecast layout! Learn more

10-Day Weather Forecast

Advertisements
Track Severe Weather on mobile